Time;durP1;ratioP1;P1;durP2;ratioP2;P2;SDS_P1;SDS_P2;PMS_P1;PMS_P2;Temp;Humidity;BMP_temperature;BMP_pressure;BME280_temperature;BME280_humidity;BME280_pressure;Samples;Min_cycle;Max_cycle;Signal;HPM_P1;HPM_P2
2023/10/01 00:00:34;;;;;;;18.30;6.22;;;13.60;99.90;;;;;;4954604;28;20030;-79
2023/10/01 00:03:06;;;;;;;14.35;6.90;;;13.60;99.90;;;;;;4963594;28;20082;-75
2023/10/01 00:05:35;;;;;;;15.68;6.53;;;13.50;99.90;;;;;;4961963;28;20118;-76
2023/10/01 00:08:08;;;;;;;14.60;6.53;;;13.50;99.90;;;;;;4949964;28;20031;-76
2023/10/01 00:10:41;;;;;;;14.10;6.25;;;13.50;99.90;;;;;;4964846;28;20035;-79
2023/10/01 00:13:10;;;;;;;14.93;6.17;;;13.50;99.90;;;;;;4949650;28;20043;-77
2023/10/01 00:15:42;;;;;;;14.13;6.63;;;13.50;99.90;;;;;;4954084;28;20035;-78
2023/10/01 00:18:07;;;;;;;15.20;6.53;;;13.40;99.90;;;;;;4958446;28;20031;-80
2023/10/01 00:20:36;;;;;;;17.13;7.15;;;13.40;99.90;;;;;;4961343;28;20036;-77
2023/10/01 00:23:05;;;;;;;18.30;8.00;;;13.40;99.90;;;;;;4971458;28;20840;-76
2023/10/01 00:25:32;;;;;;;14.00;6.60;;;13.40;99.90;;;;;;4958537;28;20086;-77
2023/10/01 00:28:04;;;;;;;17.25;7.18;;;13.40;99.90;;;;;;4958561;28;20039;-78
2023/10/01 00:30:41;;;;;;;13.15;6.47;;;13.40;99.90;;;;;;4957638;28;20054;-77
2023/10/01 00:33:11;;;;;;;15.10;6.85;;;13.40;99.90;;;;;;4965021;28;20019;-79
2023/10/01 00:35:39;;;;;;;16.08;7.13;;;13.30;99.90;;;;;;4957818;28;20091;-77
2023/10/01 00:38:06;;;;;;;13.05;6.00;;;13.30;99.90;;;;;;4955576;28;20038;-77
2023/10/01 00:40:42;;;;;;;16.08;6.35;;;13.30;99.90;;;;;;4957615;28;20031;-76
2023/10/01 00:43:12;;;;;;;12.50;6.25;;;13.30;99.90;;;;;;4976604;28;20023;-77
2023/10/01 00:45:39;;;;;;;16.63;6.75;;;13.30;99.90;;;;;;4958752;28;20089;-77
2023/10/01 00:48:11;;;;;;;13.55;5.93;;;13.20;99.90;;;;;;4958748;28;20027;-76
2023/10/01 00:50:57;;;;;;;15.23;6.63;;;13.10;99.90;;;;;;4958893;28;20034;-77
2023/10/01 00:53:22;;;;;;;16.17;6.00;;;13.10;99.90;;;;;;4975281;28;20035;-77
2023/10/01 00:55:51;;;;;;;14.13;7.00;;;13.10;99.90;;;;;;4958813;28;20050;-77
2023/10/01 00:58:18;;;;;;;16.38;6.53;;;13.10;99.90;;;;;;4956373;28;20568;-77
2023/10/01 01:00:48;;;;;;;16.20;6.57;;;13.00;99.90;;;;;;4966217;28;20035;-77
2023/10/01 01:03:22;;;;;;;17.38;7.45;;;13.00;99.90;;;;;;4956246;28;20356;-78
2023/10/01 01:08:33;;;;;;;19.30;6.90;;;13.00;99.90;;;;;;4956600;28;20298;-78
2023/10/01 01:11:03;;;;;;;18.52;7.57;;;13.00;99.90;;;;;;4958343;28;20031;-78
2023/10/01 01:13:33;;;;;;;13.20;6.63;;;13.10;99.90;;;;;;4956642;28;20082;-77
2023/10/01 01:16:08;;;;;;;14.52;6.38;;;13.00;99.90;;;;;;4953461;28;20031;-77
2023/10/01 01:18:44;;;;;;;18.42;7.57;;;13.00;99.90;;;;;;4957312;28;20031;-78
2023/10/01 01:21:10;;;;;;;14.05;6.45;;;13.00;99.90;;;;;;4956703;29;20019;-79
2023/10/01 01:23:50;;;;;;;14.52;6.68;;;13.00;99.90;;;;;;4963087;28;20462;-79
2023/10/01 01:26:22;;;;;;;14.18;6.22;;;13.00;99.90;;;;;;4961733;28;20046;-80
2023/10/01 01:28:48;;;;;;;18.50;7.57;;;13.00;99.90;;;;;;4958427;28;20015;-79
2023/10/01 01:31:16;;;;;;;11.32;5.88;;;13.00;99.90;;;;;;4959749;28;20046;-78
2023/10/01 01:33:55;;;;;;;15.73;6.38;;;13.00;99.90;;;;;;4958504;28;20039;-79
2023/10/01 01:36:33;;;;;;;13.15;6.63;;;12.90;99.90;;;;;;4973566;28;20256;-79
2023/10/01 01:39:41;;;;;;;15.20;6.63;;;12.90;99.90;;;;;;4959830;28;20023;-79
2023/10/01 01:42:08;;;;;;;16.33;7.22;;;12.90;99.90;;;;;;4971208;28;20039;-79
2023/10/01 01:44:37;;;;;;;15.23;6.88;;;12.80;99.90;;;;;;4958315;28;20031;-78
2023/10/01 01:47:07;;;;;;;14.52;6.55;;;12.80;99.90;;;;;;4959735;28;20030;-79
2023/10/01 01:49:32;;;;;;;17.40;7.30;;;12.80;99.90;;;;;;4959891;28;20478;-80
2023/10/01 01:52:03;;;;;;;14.48;6.00;;;12.80;99.90;;;;;;4958661;28;20030;-79
2023/10/01 01:54:45;;;;;;;14.00;6.22;;;12.70;99.90;;;;;;4955449;28;20023;-80
2023/10/01 01:57:17;;;;;;;14.85;6.72;;;12.70;99.90;;;;;;4958862;28;20019;-80
2023/10/01 01:59:49;;;;;;;15.68;7.15;;;12.70;99.90;;;;;;4960180;28;20474;-80
2023/10/01 02:02:16;;;;;;;14.02;6.63;;;12.60;99.90;;;;;;4963405;28;20034;-79
2023/10/01 02:05:09;;;;;;;13.63;6.55;;;12.60;99.90;;;;;;4954921;28;20019;-79
2023/10/01 02:07:28;;;;;;;17.45;7.13;;;12.50;99.90;;;;;;4956899;28;20447;-79
2023/10/01 02:09:54;;;;;;;15.00;6.32;;;12.50;99.90;;;;;;4960328;29;20027;-77
2023/10/01 02:12:29;;;;;;;13.70;6.97;;;12.40;99.90;;;;;;4957413;28;20042;-76
2023/10/01 02:15:03;;;;;;;17.55;6.63;;;12.40;99.90;;;;;;4957099;28;20042;-77
2023/10/01 02:17:29;;;;;;;14.80;6.80;;;12.40;99.90;;;;;;4953465;29;20058;-77
2023/10/01 02:19:58;;;;;;;15.40;7.15;;;12.30;99.90;;;;;;4959644;28;20050;-77
2023/10/01 02:22:31;;;;;;;15.90;6.80;;;12.40;99.90;;;;;;4955938;28;20042;-76
2023/10/01 02:25:04;;;;;;;15.23;6.53;;;12.30;99.90;;;;;;4955479;28;20114;-76
2023/10/01 02:27:45;;;;;;;14.35;6.47;;;12.30;99.90;;;;;;4955249;29;20111;-77
2023/10/01 02:30:23;;;;;;;16.08;7.10;;;12.30;99.90;;;;;;4952695;29;20027;-76
2023/10/01 02:35:46;;;;;;;13.13;6.68;;;12.20;99.90;;;;;;4954193;29;20090;-76
2023/10/01 02:41:07;;;;;;;14.95;6.65;;;12.20;99.90;;;;;;4958949;28;20030;-77
2023/10/01 02:43:41;;;;;;;13.15;5.95;;;12.20;99.90;;;;;;4954560;28;20470;-77
2023/10/01 02:46:12;;;;;;;11.05;5.93;;;12.10;99.90;;;;;;4954229;28;20030;-77
2023/10/01 02:48:47;;;;;;;20.73;7.72;;;12.20;99.90;;;;;;4954965;28;20034;-77
2023/10/01 02:51:16;;;;;;;15.10;6.65;;;12.20;99.90;;;;;;4952285;29;20023;-77
2023/10/01 02:56:33;;;;;;;13.38;5.97;;;12.10;99.90;;;;;;4952486;28;20031;-76
2023/10/01 02:59:12;;;;;;;18.05;7.30;;;12.10;99.90;;;;;;4950679;28;20034;-75
2023/10/01 03:01:47;;;;;;;16.58;7.05;;;12.00;99.90;;;;;;4954870;28;20445;-76
2023/10/01 03:04:17;;;;;;;12.55;6.50;;;12.00;99.90;;;;;;4952621;28;20038;-76
2023/10/01 03:06:57;;;;;;;15.35;5.88;;;12.00;99.90;;;;;;4949182;28;20028;-75
2023/10/01 03:09:34;;;;;;;12.65;6.28;;;11.90;99.90;;;;;;4953517;28;20043;-75
2023/10/01 03:18:34;;;;;;;23.98;7.65;;;11.80;99.90;;;;;;4933843;29;20407;-75
2023/10/01 03:31:37;;;;;;;;;;;11.80;99.90;;;;;;4948640;28;20066;-76
2023/10/01 03:34:04;;;;;;;14.60;6.38;;;11.70;99.90;;;;;;4960122;28;19906;-76
2023/10/01 03:36:42;;;;;;;16.42;6.80;;;11.70;99.90;;;;;;4951196;28;20034;-76
2023/10/01 03:39:26;;;;;;;13.13;6.00;;;11.70;99.90;;;;;;4951925;28;20486;-76
2023/10/01 03:41:52;;;;;;;16.90;7.90;;;11.70;99.90;;;;;;4948130;28;20036;-75
2023/10/01 03:44:40;;;;;;;14.00;6.13;;;11.70;99.90;;;;;;4949731;28;20027;-76
2023/10/01 03:47:13;;;;;;;17.20;6.47;;;11.70;99.90;;;;;;4949558;28;20035;-76
2023/10/01 03:49:44;;;;;;;17.13;6.57;;;11.70;99.90;;;;;;4951328;28;20110;-76
2023/10/01 03:52:20;;;;;;;15.48;5.97;;;11.60;99.90;;;;;;4950413;28;20478;-76
2023/10/01 03:57:52;;;;;;;14.00;6.88;;;11.50;99.90;;;;;;4949396;28;20031;-76
2023/10/01 04:00:30;;;;;;;13.57;6.73;;;11.50;99.90;;;;;;4949554;28;20478;-76
2023/10/01 04:02:55;;;;;;;16.98;6.80;;;11.50;99.90;;;;;;4951680;28;20043;-76
2023/10/01 04:05:21;;;;;;;13.02;6.68;;;11.40;99.90;;;;;;4947964;28;20093;-75
2023/10/01 04:07:50;;;;;;;17.08;6.03;;;11.40;99.90;;;;;;4947008;28;20027;-76
2023/10/01 04:10:28;;;;;;;13.15;6.43;;;11.40;99.90;;;;;;4949552;28;20390;-76
2023/10/01 04:13:00;;;;;;;17.92;6.80;;;11.40;99.90;;;;;;4952073;28;20359;-76
2023/10/01 04:15:29;;;;;;;16.27;6.80;;;11.40;99.90;;;;;;4952345;28;20023;-76
2023/10/01 04:23:29;;;;;;;14.70;6.93;;;11.30;99.90;;;;;;4952829;28;20106;-76
2023/10/01 04:26:08;;;;;;;13.38;6.13;;;11.30;99.90;;;;;;4967246;28;20019;-76
2023/10/01 04:28:35;;;;;;;14.90;6.35;;;11.30;99.90;;;;;;4968072;28;20030;-76
2023/10/01 04:31:06;;;;;;;13.32;6.78;;;11.20;99.90;;;;;;4947267;28;20122;-76
2023/10/01 04:33:42;;;;;;;15.05;5.82;;;11.20;99.90;;;;;;4948442;28;20102;-76
2023/10/01 04:36:19;;;;;;;14.65;7.03;;;11.20;99.90;;;;;;4948757;28;20027;-76
2023/10/01 04:38:48;;;;;;;13.50;5.88;;;11.20;99.90;;;;;;4952105;28;20027;-76
2023/10/01 04:41:22;;;;;;;14.40;7.40;;;11.10;99.90;;;;;;4964729;28;20421;-76
2023/10/01 04:44:06;;;;;;;15.80;6.50;;;11.10;99.90;;;;;;4949360;28;20422;-76
2023/10/01 04:46:37;;;;;;;13.40;6.80;;;11.10;99.90;;;;;;4950173;28;20460;-76
2023/10/01 04:49:27;;;;;;;17.13;6.47;;;11.10;99.90;;;;;;4952323;28;20027;-76
2023/10/01 04:52:10;;;;;;;15.63;7.13;;;11.20;99.90;;;;;;4966161;28;20532;-77
2023/10/01 04:54:37;;;;;;;12.23;5.63;;;11.10;99.90;;;;;;4951452;28;20035;-75
2023/10/01 04:57:06;;;;;;;15.07;6.15;;;11.10;99.90;;;;;;4949273;28;20501;-75
2023/10/01 04:59:32;;;;;;;15.73;6.38;;;11.10;99.90;;;;;;4948394;28;20023;-76
2023/10/01 05:01:59;;;;;;;14.80;6.00;;;11.10;99.90;;;;;;4950165;28;20390;-76
2023/10/01 05:04:27;;;;;;;16.73;6.47;;;11.10;99.90;;;;;;4953868;28;20437;-76
2023/10/01 05:07:10;;;;;;;15.32;6.78;;;11.10;99.90;;;;;;4952130;28;20534;-76
2023/10/01 05:09:41;;;;;;;15.93;6.78;;;11.10;99.90;;;;;;4955936;28;20027;-76
2023/10/01 05:12:11;;;;;;;15.52;6.78;;;11.10;99.90;;;;;;4952747;28;20031;-76
2023/10/01 05:14:59;;;;;;;13.35;6.00;;;11.10;99.90;;;;;;4954475;28;20035;-76
2023/10/01 05:17:31;;;;;;;16.55;6.63;;;11.10;99.90;;;;;;4955323;28;20048;-76
2023/10/01 05:20:08;;;;;;;14.95;6.50;;;11.10;99.90;;;;;;4953493;28;20023;-75
2023/10/01 05:22:46;;;;;;;17.02;6.90;;;11.10;99.90;;;;;;4955236;28;20024;-74
2023/10/01 05:25:13;;;;;;;14.73;7.13;;;11.10;99.90;;;;;;4955285;28;20031;-74
2023/10/01 05:27:40;;;;;;;15.60;6.78;;;11.10;99.90;;;;;;4955623;28;20031;-75
2023/10/01 05:30:32;;;;;;;20.48;7.55;;;11.10;99.90;;;;;;4955969;28;20122;-75
2023/10/01 05:32:52;;;;;;;15.18;7.13;;;11.10;99.90;;;;;;4953596;28;20039;-75
2023/10/01 05:35:28;;;;;;;15.75;6.97;;;11.10;99.90;;;;;;4948164;28;20375;-74
2023/10/01 05:37:57;;;;;;;16.73;6.88;;;11.00;99.90;;;;;;4955029;28;20038;-75
2023/10/01 05:40:29;;;;;;;17.23;7.45;;;11.00;99.90;;;;;;4952032;28;20035;-75
2023/10/01 05:43:12;;;;;;;16.15;7.65;;;11.00;99.90;;;;;;4967502;28;20027;-75
2023/10/01 05:45:39;;;;;;;18.17;7.18;;;11.00;99.90;;;;;;4949446;28;20031;-75
2023/10/01 05:48:10;;;;;;;14.75;7.20;;;11.00;99.90;;;;;;4969205;28;20390;-75
2023/10/01 05:50:39;;;;;;;20.17;7.10;;;11.00;99.90;;;;;;4954402;28;20035;-75
2023/10/01 05:53:05;;;;;;;16.85;7.53;;;11.00;99.90;;;;;;4952658;28;20237;-75
2023/10/01 05:55:41;;;;;;;14.63;7.28;;;11.10;99.90;;;;;;4953812;28;20031;-75
2023/10/01 05:58:16;;;;;;;16.65;6.80;;;11.10;99.90;;;;;;4955037;28;20058;-75
2023/10/01 06:03:30;;;;;;;13.73;6.78;;;11.10;99.90;;;;;;4947669;28;20086;-76
2023/10/01 06:05:59;;;;;;;13.65;6.63;;;11.10;99.90;;;;;;4965152;28;20118;-77
2023/10/01 06:11:17;;;;;;;14.27;6.47;;;11.20;99.90;;;;;;4953173;28;20063;-75
2023/10/01 06:13:54;;;;;;;16.95;7.65;;;11.20;99.90;;;;;;4965887;28;20489;-76
2023/10/01 06:16:25;;;;;;;17.23;7.80;;;11.20;99.90;;;;;;4954703;28;20028;-76
2023/10/01 06:18:58;;;;;;;16.25;7.47;;;11.20;99.90;;;;;;4965382;28;20079;-76
2023/10/01 06:21:31;;;;;;;20.13;8.30;;;11.20;99.90;;;;;;4953480;28;20477;-76
2023/10/01 06:24:10;;;;;;;19.55;7.32;;;11.30;99.90;;;;;;4951756;28;20031;-76
2023/10/01 06:26:50;;;;;;;14.95;7.30;;;11.30;99.90;;;;;;4951163;28;20494;-76
2023/10/01 06:29:19;;;;;;;16.42;7.47;;;11.30;99.90;;;;;;4953271;28;20003;-76
2023/10/01 06:31:48;;;;;;;17.52;7.25;;;11.40;99.90;;;;;;4952079;28;20031;-76
2023/10/01 06:34:22;;;;;;;17.75;7.65;;;11.40;99.90;;;;;;4950996;28;20038;-75
2023/10/01 06:36:55;;;;;;;;;;;11.40;99.90;;;;;;4966263;28;20031;-76
2023/10/01 06:39:25;;;;;;;18.25;8.18;;;11.40;99.90;;;;;;4966788;28;19911;-76
2023/10/01 06:42:17;;;;;;;18.73;7.97;;;11.50;99.90;;;;;;4951080;28;20490;-75
2023/10/01 06:44:39;;;;;;;17.92;8.52;;;11.50;99.90;;;;;;4952636;28;20032;-76
2023/10/01 06:47:14;;;;;;;16.38;8.00;;;11.60;99.90;;;;;;4949903;28;21585;-76
2023/10/01 06:52:35;;;;;;;15.55;7.15;;;11.60;99.90;;;;;;4949825;28;20081;-75
2023/10/01 06:55:02;;;;;;;16.52;8.00;;;11.70;99.90;;;;;;4947347;28;20114;-75
2023/10/01 06:57:31;;;;;;;16.55;7.32;;;11.80;99.90;;;;;;4947462;28;20454;-75
2023/10/01 06:59:56;;;;;;;18.83;7.93;;;11.80;99.90;;;;;;4949013;28;20106;-78
2023/10/01 07:02:26;;;;;;;15.38;7.47;;;12.00;99.90;;;;;;4948864;28;20126;-74
2023/10/01 07:05:00;;;;;;;16.05;8.25;;;12.00;99.90;;;;;;4950336;28;20269;-75
2023/10/01 07:07:42;;;;;;;17.35;7.80;;;12.00;99.90;;;;;;4949687;28;20034;-75
2023/10/01 07:10:11;;;;;;;19.30;8.30;;;12.10;99.90;;;;;;4953133;28;20023;-75
2023/10/01 07:13:04;;;;;;;22.10;8.90;;;12.10;99.90;;;;;;4952056;28;20395;-75
2023/10/01 07:15:32;;;;;;;18.58;9.02;;;12.20;99.90;;;;;;4951736;28;20059;-75
2023/10/01 07:18:19;;;;;;;18.00;8.32;;;12.30;99.90;;;;;;4948044;28;20061;-78
2023/10/01 07:20:51;;;;;;;20.85;7.90;;;12.30;99.90;;;;;;4963517;28;20023;-75
2023/10/01 07:23:25;;;;;;;17.23;8.30;;;12.40;99.90;;;;;;4950233;28;20031;-77
2023/10/01 07:26:03;;;;;;;18.05;7.80;;;12.50;99.90;;;;;;4947829;28;20027;-76
2023/10/01 07:28:30;;;;;;;16.70;8.38;;;12.50;99.90;;;;;;4945298;28;20088;-72
2023/10/01 07:31:01;;;;;;;20.83;9.07;;;12.60;99.90;;;;;;4945825;28;20027;-73
2023/10/01 07:33:31;;;;;;;16.98;8.50;;;12.60;99.90;;;;;;4950103;28;20521;-73
2023/10/01 07:36:11;;;;;;;16.33;8.48;;;12.70;99.90;;;;;;4947037;28;20023;-74
2023/10/01 07:38:49;;;;;;;17.42;8.63;;;12.80;99.90;;;;;;4948444;28;20031;-72
2023/10/01 07:41:16;;;;;;;17.95;8.18;;;12.80;99.90;;;;;;4949140;28;20110;-71
2023/10/01 07:43:45;;;;;;;17.92;8.13;;;13.00;99.90;;;;;;4949750;28;20019;-74
2023/10/01 07:46:18;;;;;;;15.07;7.90;;;13.10;99.90;;;;;;4950633;28;20106;-72
2023/10/01 07:48:48;;;;;;;19.95;8.40;;;13.30;99.90;;;;;;4947998;28;20031;-72
2023/10/01 07:54:11;;;;;;;19.52;8.05;;;13.50;99.90;;;;;;4949818;28;20423;-72
2023/10/01 07:56:39;;;;;;;18.75;8.70;;;13.50;99.90;;;;;;4950436;28;20490;-71
2023/10/01 07:59:28;;;;;;;17.08;7.88;;;13.50;99.90;;;;;;4951236;28;20035;-72
2023/10/01 08:02:19;;;;;;;16.83;8.15;;;13.60;99.90;;;;;;4949946;28;20111;-71
2023/10/01 08:04:57;;;;;;;16.98;8.48;;;13.60;99.90;;;;;;4951405;28;20366;-76
2023/10/01 08:07:30;;;;;;;16.90;8.13;;;13.80;99.90;;;;;;4947069;28;20053;-74
2023/10/01 08:09:59;;;;;;;18.42;8.93;;;13.90;99.90;;;;;;4950962;28;20042;-75
2023/10/01 08:12:29;;;;;;;16.70;8.52;;;13.90;99.90;;;;;;4947510;28;20054;-75
2023/10/01 08:17:47;;;;;;;16.58;7.55;;;14.00;99.90;;;;;;4948681;28;20038;-75
2023/10/01 08:20:21;;;;;;;23.75;8.20;;;14.10;99.90;;;;;;4949642;28;20024;-73
2023/10/01 08:25:42;;;;;;;18.05;9.43;;;14.30;99.90;;;;;;4949189;28;20054;-72
2023/10/01 08:28:26;;;;;;;;;;;14.40;99.90;;;;;;4953382;28;20438;-71
2023/10/01 08:31:02;;;;;;;16.10;8.33;;;14.50;99.90;;;;;;4951308;28;19918;-73
2023/10/01 08:33:51;;;;;;;19.50;8.55;;;14.60;99.90;;;;;;4967446;28;20038;-74
2023/10/01 08:36:17;;;;;;;18.40;8.90;;;14.70;99.90;;;;;;4964591;28;20328;-74
2023/10/01 08:38:47;;;;;;;18.10;8.48;;;14.80;99.90;;;;;;4958708;28;20030;-73
2023/10/01 08:44:10;;;;;;;15.75;7.82;;;15.00;99.90;;;;;;4957923;28;20030;-74
2023/10/01 08:46:40;;;;;;;19.70;8.73;;;15.10;99.90;;;;;;4953826;28;20027;-72
2023/10/01 08:49:30;;;;;;;17.08;7.82;;;15.30;99.90;;;;;;4955008;28;20062;-70
2023/10/01 08:52:19;;;;;;;15.93;7.68;;;15.40;99.90;;;;;;4954481;28;20015;-71
2023/10/01 08:54:45;;;;;;;18.20;8.32;;;15.50;99.90;;;;;;4955710;28;20042;-72
2023/10/01 08:57:18;;;;;;;15.23;7.25;;;15.60;99.90;;;;;;4954424;28;20030;-71
2023/10/01 08:59:47;;;;;;;17.08;8.50;;;15.70;99.90;;;;;;4955394;28;20486;-70
2023/10/01 09:02:20;;;;;;;19.30;8.88;;;15.70;99.90;;;;;;4965260;28;20035;-69
2023/10/01 09:04:47;;;;;;;18.77;8.07;;;15.80;99.90;;;;;;4957744;28;20666;-73
2023/10/01 09:07:19;;;;;;;17.85;9.10;;;15.80;99.90;;;;;;4967224;28;20600;-69
2023/10/01 09:10:06;;;;;;;17.48;7.65;;;15.90;99.90;;;;;;4956621;28;20062;-70
2023/10/01 09:12:45;;;;;;;15.27;7.45;;;16.00;99.90;;;;;;4966552;28;20034;-70
2023/10/01 09:15:38;;;;;;;17.73;8.05;;;16.10;99.90;;;;;;4961415;28;20035;-71
2023/10/01 09:18:10;;;;;;;14.85;7.38;;;16.20;99.90;;;;;;4951935;28;20029;-69
2023/10/01 09:20:42;;;;;;;16.98;7.68;;;16.20;99.90;;;;;;4954056;28;20023;-69
2023/10/01 09:23:14;;;;;;;16.13;7.50;;;16.30;99.90;;;;;;4951845;28;20027;-69
2023/10/01 09:25:59;;;;;;;19.25;8.52;;;16.40;99.90;;;;;;4956941;28;20106;-70
2023/10/01 09:28:37;;;;;;;20.10;8.13;;;16.40;99.90;;;;;;4973344;28;20075;-71
2023/10/01 09:33:51;;;;;;;18.67;8.20;;;16.70;99.90;;;;;;4952407;28;20037;-71
2023/10/01 09:36:37;;;;;;;20.98;9.60;;;16.90;99.90;;;;;;4951889;28;20034;-70
2023/10/01 09:39:07;;;;;;;19.23;8.32;;;16.90;99.90;;;;;;4956736;28;20478;-71
2023/10/01 09:41:40;;;;;;;15.48;7.72;;;17.00;99.90;;;;;;4955862;29;20035;-70
2023/10/01 09:44:14;;;;;;;;;;;17.10;99.90;;;;;;4950710;28;20027;-71
2023/10/01 09:46:42;;;;;;;16.77;7.22;;;17.10;99.90;;;;;;4949582;28;19922;-70
2023/10/01 09:49:08;;;;;;;16.77;7.43;;;17.20;99.90;;;;;;4951987;28;20042;-70
2023/10/01 09:51:41;;;;;;;16.35;7.40;;;17.30;99.90;;;;;;4953344;28;20042;-71
2023/10/01 09:54:11;;;;;;;17.73;7.93;;;17.40;99.90;;;;;;4957444;28;20035;-70
2023/10/01 09:59:08;;;;;;;14.82;6.47;;;17.60;99.90;;;;;;4955529;28;20498;-68
2023/10/01 10:01:36;;;;;;;14.50;6.13;;;17.80;99.90;;;;;;4952182;28;20114;-71
2023/10/01 10:04:05;;;;;;;21.27;6.88;;;17.90;99.90;;;;;;4955617;28;20396;-70
2023/10/01 10:06:31;;;;;;;16.38;7.10;;;18.00;99.90;;;;;;4958334;28;20031;-69
2023/10/01 10:09:05;;;;;;;14.35;6.68;;;18.00;99.90;;;;;;4953791;28;20031;-68
2023/10/01 10:11:40;;;;;;;16.65;7.93;;;18.20;99.90;;;;;;4952899;28;20363;-68
2023/10/01 10:14:27;;;;;;;14.98;6.88;;;18.20;99.90;;;;;;4951227;28;20031;-70
2023/10/01 10:17:00;;;;;;;16.88;6.47;;;18.40;99.90;;;;;;4948234;28;20035;-68
2023/10/01 10:19:30;;;;;;;16.67;7.07;;;18.50;99.90;;;;;;4950897;28;20027;-69
2023/10/01 10:24:35;;;;;;;12.95;6.65;;;18.60;99.90;;;;;;4951318;28;20031;-68
2023/10/01 10:27:15;;;;;;;13.57;6.78;;;18.70;99.70;;;;;;4950342;28;20042;-69
2023/10/01 10:30:05;;;;;;;16.52;7.50;;;18.80;99.50;;;;;;4954987;28;20132;-69
2023/10/01 10:32:31;;;;;;;16.92;8.15;;;19.00;99.30;;;;;;4955799;29;20020;-71
2023/10/01 10:35:18;;;;;;;14.50;7.03;;;19.00;99.00;;;;;;4950723;28;20023;-70
2023/10/01 10:37:55;;;;;;;12.93;6.43;;;19.10;99.10;;;;;;4952726;28;20098;-70
2023/10/01 10:40:28;;;;;;;15.10;6.88;;;19.20;98.60;;;;;;4947902;28;20035;-69
2023/10/01 10:42:59;;;;;;;16.45;7.60;;;19.20;98.50;;;;;;4965884;28;20487;-71
2023/10/01 10:45:45;;;;;;;13.90;6.85;;;19.20;98.60;;;;;;4952550;28;20482;-71
2023/10/01 10:48:21;;;;;;;20.98;7.28;;;19.20;98.60;;;;;;4951817;29;20030;-71
2023/10/01 10:50:49;;;;;;;12.98;6.68;;;19.30;98.70;;;;;;4956105;29;20028;-72
2023/10/01 10:53:19;;;;;;;15.15;6.10;;;19.40;98.60;;;;;;4960196;28;20379;-71
2023/10/01 10:56:00;;;;;;;18.92;6.80;;;19.60;98.50;;;;;;4954501;28;20035;-71
2023/10/01 10:58:28;;;;;;;14.48;6.80;;;19.70;97.90;;;;;;4963017;28;20573;-71
2023/10/01 11:01:15;;;;;;;13.35;5.97;;;19.70;97.80;;;;;;4947852;28;20106;-73
2023/10/01 11:03:57;;;;;;;15.85;7.45;;;19.80;97.60;;;;;;4945150;28;20035;-73
2023/10/01 11:06:25;;;;;;;14.93;7.20;;;19.80;97.30;;;;;;4949843;28;20040;-76
2023/10/01 11:08:53;;;;;;;14.00;6.72;;;19.70;97.50;;;;;;4964447;28;20027;-77
2023/10/01 11:11:41;;;;;;;15.40;5.53;;;19.80;97.50;;;;;;4949679;28;20055;-76
2023/10/01 11:14:29;;;;;;;14.90;6.85;;;19.70;97.50;;;;;;4965101;28;20027;-75
2023/10/01 11:16:55;;;;;;;16.17;6.57;;;19.80;97.70;;;;;;4966819;28;20038;-76
2023/10/01 11:19:35;;;;;;;14.43;6.22;;;19.80;97.60;;;;;;4953466;28;20039;-75
2023/10/01 11:22:03;;;;;;;15.25;7.18;;;19.80;97.30;;;;;;4948934;28;20035;-77
2023/10/01 11:24:41;;;;;;;18.88;7.20;;;20.00;97.30;;;;;;4946229;28;20118;-76
2023/10/01 11:27:26;;;;;;;16.05;6.72;;;20.00;97.10;;;;;;4949092;28;20035;-79
2023/10/01 11:30:20;;;;;;;15.00;6.80;;;20.00;97.20;;;;;;4952456;28;20090;-78
2023/10/01 11:35:41;;;;;;;16.27;6.63;;;20.10;96.90;;;;;;4954945;28;20020;-75
2023/10/01 11:38:21;;;;;;;14.98;6.55;;;20.20;96.70;;;;;;4949713;28;20035;-73
2023/10/01 11:41:07;;;;;;;14.30;6.55;;;20.20;96.90;;;;;;4949746;28;20031;-74
2023/10/01 11:43:41;;;;;;;13.90;6.13;;;20.20;96.60;;;;;;4949622;28;20023;-77
2023/10/01 11:46:59;;;;;;;14.40;6.63;;;20.30;96.30;;;;;;4952408;28;20074;-77
2023/10/01 11:49:37;;;;;;;14.55;6.43;;;20.30;96.10;;;;;;4949924;28;20103;-77
2023/10/01 11:52:21;;;;;;;16.83;7.13;;;20.40;96.30;;;;;;4954236;28;20023;-76
2023/10/01 11:54:53;;;;;;;15.73;6.80;;;20.40;96.20;;;;;;4967203;28;20023;-75
2023/10/01 11:57:23;;;;;;;15.05;6.78;;;20.30;96.40;;;;;;4950803;28;20058;-76
2023/10/01 11:59:56;;;;;;;15.48;7.38;;;20.30;96.30;;;;;;4950373;28;20023;-76
2023/10/01 12:02:58;;;;;;;16.08;7.47;;;20.30;96.50;;;;;;4951077;28;20031;-78
2023/10/01 12:05:38;;;;;;;14.82;6.80;;;20.40;96.50;;;;;;4951603;28;20027;-77
2023/10/01 12:08:14;;;;;;;16.27;8.35;;;20.40;96.40;;;;;;4960916;28;20041;-76
2023/10/01 12:10:51;;;;;;;15.75;7.18;;;20.50;96.40;;;;;;4948881;28;20058;-77
2023/10/01 12:13:21;;;;;;;19.33;8.15;;;20.60;96.30;;;;;;4953525;28;20076;-77
2023/10/01 12:15:53;;;;;;;16.10;6.57;;;20.70;96.20;;;;;;4956212;28;20029;-76
2023/10/01 12:18:18;;;;;;;15.55;6.82;;;20.80;96.10;;;;;;4955970;28;20031;-76
2023/10/01 12:20:50;;;;;;;18.48;7.15;;;20.80;96.10;;;;;;4953198;28;20423;-77
2023/10/01 12:23:22;;;;;;;15.85;7.15;;;20.90;96.00;;;;;;4957419;28;20035;-77
2023/10/01 12:28:32;;;;;;;16.27;7.00;;;20.90;95.80;;;;;;4961213;28;20147;-76
2023/10/01 12:31:09;;;;;;;13.70;7.28;;;21.10;95.70;;;;;;4963599;28;20055;-80
2023/10/01 12:33:46;;;;;;;14.18;6.70;;;21.10;95.60;;;;;;4972727;28;20080;-79
2023/10/01 12:44:28;;;;;;;14.70;6.88;;;21.30;94.90;;;;;;4958874;28;20130;-78
2023/10/01 12:47:15;;;;;;;14.55;7.13;;;21.30;94.90;;;;;;4957161;28;20023;-78
2023/10/01 12:49:58;;;;;;;12.48;6.07;;;21.30;94.70;;;;;;4972026;28;20035;-79
2023/10/01 12:52:30;;;;;;;14.65;7.32;;;21.30;94.60;;;;;;4959552;28;20015;-78
2023/10/01 12:55:00;;;;;;;16.40;7.57;;;21.30;94.70;;;;;;4956333;28;20109;-78
2023/10/01 12:57:38;;;;;;;13.57;6.63;;;21.30;94.70;;;;;;4970755;28;20225;-78
2023/10/01 13:00:23;;;;;;;15.05;7.05;;;21.40;94.70;;;;;;4959225;28;20461;-78
2023/10/01 13:02:50;;;;;;;15.60;7.15;;;21.50;94.50;;;;;;4957152;28;20117;-79
2023/10/01 13:05:27;;;;;;;14.45;6.75;;;21.50;94.30;;;;;;4972447;28;20075;-78
2023/10/01 13:08:05;;;;;;;14.95;6.93;;;21.50;94.10;;;;;;4956731;28;20426;-79
2023/10/01 13:10:34;;;;;;;12.95;6.72;;;21.50;94.00;;;;;;4971729;28;20031;-79
2023/10/01 13:13:02;;;;;;;13.45;6.35;;;21.50;93.90;;;;;;4956417;28;20082;-80
2023/10/01 13:15:44;;;;;;;13.27;6.20;;;21.50;93.90;;;;;;4972174;28;20407;-79
2023/10/01 13:18:21;;;;;;;15.63;6.05;;;21.50;93.60;;;;;;4957557;28;20434;-79
2023/10/01 13:23:16;;;;;;;16.77;6.60;;;21.60;93.30;;;;;;4955318;28;20038;-78
2023/10/01 13:25:46;;;;;;;14.43;6.68;;;21.60;93.20;;;;;;4969871;28;20020;-77
2023/10/01 13:28:20;;;;;;;15.90;6.40;;;21.60;93.10;;;;;;4954433;28;20380;-79
2023/10/01 13:33:25;;;;;;;12.90;6.45;;;21.60;93.20;;;;;;4957424;28;20501;-79
2023/10/01 13:35:57;;;;;;;15.25;7.10;;;21.50;93.20;;;;;;4971359;28;20024;-79
2023/10/01 13:38:27;;;;;;;15.25;6.22;;;21.50;93.30;;;;;;4954194;28;20047;-78
2023/10/01 14:09:09;;;;;;;13.18;6.60;;;21.90;92.30;;;;;;4953759;28;20055;-77
2023/10/01 14:11:39;;;;;;;13.55;6.38;;;21.90;92.50;;;;;;4955080;28;20034;-78
2023/10/01 14:14:16;;;;;;;11.52;6.35;;;22.00;92.30;;;;;;4957262;28;20482;-77
2023/10/01 14:16:47;;;;;;;14.10;7.00;;;22.00;92.10;;;;;;4956953;28;20428;-80
2023/10/01 14:19:17;;;;;;;12.75;6.28;;;22.00;92.20;;;;;;4955680;28;20086;-78
2023/10/01 14:21:42;;;;;;;13.45;5.72;;;22.00;91.90;;;;;;4956542;28;20031;-79
2023/10/01 14:27:02;;;;;;;;;;;22.00;91.90;;;;;;4955477;28;20031;-75
2023/10/01 14:29:33;;;;;;;15.60;7.30;;;22.10;91.70;;;;;;4952252;28;19910;-75
2023/10/01 14:32:10;;;;;;;13.27;6.18;;;22.10;91.70;;;;;;4953793;28;20027;-75
2023/10/01 14:34:39;;;;;;;14.98;6.75;;;22.20;91.70;;;;;;4952463;28;20050;-75
2023/10/01 14:37:04;;;;;;;13.18;6.18;;;22.20;91.60;;;;;;4952020;28;20031;-75
2023/10/01 14:39:30;;;;;;;15.52;6.38;;;22.30;91.60;;;;;;4952763;28;20110;-75
2023/10/01 14:42:02;;;;;;;15.63;6.85;;;22.30;91.50;;;;;;4953297;28;20024;-74
2023/10/01 14:44:27;;;;;;;12.90;6.45;;;22.30;91.40;;;;;;4954717;28;20514;-74
2023/10/01 14:46:56;;;;;;;13.90;6.32;;;22.40;91.60;;;;;;4953452;28;20340;-75
2023/10/01 14:49:27;;;;;;;13.43;6.07;;;22.40;91.30;;;;;;4951448;28;20042;-75
2023/10/01 14:51:56;;;;;;;14.32;6.95;;;22.30;91.10;;;;;;4951923;28;20098;-75
2023/10/01 14:54:25;;;;;;;12.60;6.15;;;22.30;91.10;;;;;;4965825;28;20154;-75
2023/10/01 14:56:58;;;;;;;13.60;6.43;;;22.30;91.10;;;;;;5051053;28;20380;-76
2023/10/01 14:59:30;;;;;;;13.38;6.85;;;22.30;91.10;;;;;;5047267;28;20025;-76
2023/10/01 15:01:57;;;;;;;13.43;5.88;;;22.40;90.90;;;;;;5047636;28;20037;-77
2023/10/01 15:04:29;;;;;;;12.95;6.25;;;22.50;90.90;;;;;;5048300;28;20017;-76